Terminal Aerodrome Forecast
Issued by NWS St Louis, MO

Home | Current Version | Previous Version | Text Only | Print | Product List | Glossary On
Versions: 1 2 3 4 5 6 7 8 9 10 11 12 13 14 15 16 17 18 19 20 21 22 23 24 25 26 27 28 29 30
593
FTUS43 KLSX 270258 AAA
TAFSTL
TAF AMD
KSTL 270258Z 2703/2806 22007KT P6SM SCT040 BKN080
     FM271000 VRB03KT 4SM BR BKN015
     FM271500 13007KT P6SM SCT040
     FM280000 14007KT P6SM BKN040
      TEMPO 2800/2804 2SM TSRA BKN035CB=

USA.gov is the U.S. government's official web portal to all federal, state and local government web resources and services.